sensor_id;sensor_type;location;lat;lon;timestamp;P1;durP1;ratioP1;P2;durP2;ratioP2
55465;SDS011;41329;41.594;23.810;2023-04-07T00:02:02;9.23;;;8.53;;
55465;SDS011;41329;41.594;23.810;2023-04-07T00:04:27;9.13;;;8.53;;
55465;SDS011;41329;41.594;23.810;2023-04-07T00:06:53;9.00;;;8.40;;
55465;SDS011;41329;41.594;23.810;2023-04-07T00:09:18;8.80;;;8.30;;
55465;SDS011;41329;41.594;23.810;2023-04-07T00:11:43;9.70;;;9.00;;
55465;SDS011;41329;41.594;23.810;2023-04-07T00:14:09;9.23;;;8.53;;
55465;SDS011;41329;41.594;23.810;2023-04-07T00:16:34;10.20;;;9.50;;
55465;SDS011;41329;41.594;23.810;2023-04-07T00:19:00;8.60;;;8.00;;
55465;SDS011;41329;41.594;23.810;2023-04-07T00:21:25;9.80;;;9.07;;
55465;SDS011;41329;41.594;23.810;2023-04-07T00:23:51;10.37;;;9.53;;
55465;SDS011;41329;41.594;23.810;2023-04-07T00:26:16;9.43;;;8.70;;
55465;SDS011;41329;41.594;23.810;2023-04-07T00:28:42;9.20;;;8.43;;
55465;SDS011;41329;41.594;23.810;2023-04-07T00:31:07;11.27;;;10.47;;
55465;SDS011;41329;41.594;23.810;2023-04-07T00:33:33;10.53;;;9.73;;
55465;SDS011;41329;41.594;23.810;2023-04-07T00:35:58;9.53;;;8.93;;
55465;SDS011;41329;41.594;23.810;2023-04-07T00:38:23;10.87;;;10.00;;
55465;SDS011;41329;41.594;23.810;2023-04-07T00:40:49;10.53;;;9.73;;
55465;SDS011;41329;41.594;23.810;2023-04-07T00:43:15;10.27;;;9.57;;
55465;SDS011;41329;41.594;23.810;2023-04-07T00:45:40;10.40;;;9.67;;
55465;SDS011;41329;41.594;23.810;2023-04-07T00:48:06;9.23;;;8.63;;
55465;SDS011;41329;41.594;23.810;2023-04-07T00:50:31;10.80;;;10.00;;
55465;SDS011;41329;41.594;23.810;2023-04-07T00:52:57;9.80;;;9.10;;
55465;SDS011;41329;41.594;23.810;2023-04-07T00:55:23;9.70;;;9.00;;
55465;SDS011;41329;41.594;23.810;2023-04-07T00:57:48;8.70;;;8.00;;
55465;SDS011;41329;41.594;23.810;2023-04-07T01:00:15;9.90;;;9.10;;
55465;SDS011;41329;41.594;23.810;2023-04-07T01:02:47;9.17;;;8.57;;
55465;SDS011;41329;41.594;23.810;2023-04-07T01:05:25;9.30;;;8.60;;
55465;SDS011;41329;41.594;23.810;2023-04-07T01:15:54;9.70;;;9.10;;
55465;SDS011;41329;41.594;23.810;2023-04-07T01:18:34;8.73;;;8.15;;
55465;SDS011;41329;41.594;23.810;2023-04-07T01:21:03;9.17;;;8.47;;
55465;SDS011;41329;41.594;23.810;2023-04-07T01:29:23;8.70;;;8.00;;
55465;SDS011;41329;41.594;23.810;2023-04-07T01:31:50;8.83;;;8.23;;
55465;SDS011;41329;41.594;23.810;2023-04-07T01:34:18;8.50;;;7.90;;
55465;SDS011;41329;41.594;23.810;2023-04-07T01:36:45;9.23;;;8.53;;
55465;SDS011;41329;41.594;23.810;2023-04-07T01:39:12;8.80;;;8.20;;
55465;SDS011;41329;41.594;23.810;2023-04-07T01:41:37;8.70;;;7.93;;
55465;SDS011;41329;41.594;23.810;2023-04-07T01:44:05;8.50;;;7.90;;
55465;SDS011;41329;41.594;23.810;2023-04-07T01:46:32;8.10;;;7.50;;
55465;SDS011;41329;41.594;23.810;2023-04-07T01:48:58;8.77;;;8.17;;
55465;SDS011;41329;41.594;23.810;2023-04-07T01:51:24;9.00;;;8.30;;
55465;SDS011;41329;41.594;23.810;2023-04-07T01:53:51;8.53;;;8.03;;
55465;SDS011;41329;41.594;23.810;2023-04-07T01:56:17;8.57;;;8.07;;
55465;SDS011;41329;41.594;23.810;2023-04-07T01:58:42;8.23;;;7.67;;
55465;SDS011;41329;41.594;23.810;2023-04-07T02:01:08;8.50;;;7.90;;
55465;SDS011;41329;41.594;23.810;2023-04-07T02:03:42;9.10;;;8.50;;
55465;SDS011;41329;41.594;23.810;2023-04-07T02:06:11;9.07;;;8.47;;
55465;SDS011;41329;41.594;23.810;2023-04-07T02:08:41;8.60;;;8.10;;
55465;SDS011;41329;41.594;23.810;2023-04-07T02:11:12;8.17;;;7.53;;
55465;SDS011;41329;41.594;23.810;2023-04-07T02:13:42;8.23;;;7.73;;
55465;SDS011;41329;41.594;23.810;2023-04-07T02:16:10;8.17;;;7.67;;
55465;SDS011;41329;41.594;23.810;2023-04-07T02:18:36;8.40;;;7.80;;
55465;SDS011;41329;41.594;23.810;2023-04-07T02:21:02;8.33;;;7.57;;
55465;SDS011;41329;41.594;23.810;2023-04-07T02:23:29;8.27;;;7.77;;
55465;SDS011;41329;41.594;23.810;2023-04-07T02:25:56;7.97;;;7.47;;
55465;SDS011;41329;41.594;23.810;2023-04-07T02:28:22;8.33;;;7.83;;
55465;SDS011;41329;41.594;23.810;2023-04-07T02:30:48;7.53;;;7.03;;
55465;SDS011;41329;41.594;23.810;2023-04-07T02:33:13;7.90;;;7.47;;
55465;SDS011;41329;41.594;23.810;2023-04-07T02:35:38;7.67;;;7.17;;
55465;SDS011;41329;41.594;23.810;2023-04-07T02:38:04;8.57;;;7.90;;
55465;SDS011;41329;41.594;23.810;2023-04-07T02:40:30;8.40;;;7.80;;
55465;SDS011;41329;41.594;23.810;2023-04-07T02:42:55;8.60;;;8.00;;
55465;SDS011;41329;41.594;23.810;2023-04-07T02:45:20;17.77;;;9.40;;
55465;SDS011;41329;41.594;23.810;2023-04-07T02:47:46;7.93;;;7.33;;
55465;SDS011;41329;41.594;23.810;2023-04-07T02:50:11;8.73;;;8.13;;
55465;SDS011;41329;41.594;23.810;2023-04-07T02:52:37;8.37;;;7.67;;
55465;SDS011;41329;41.594;23.810;2023-04-07T02:55:02;8.77;;;7.93;;
55465;SDS011;41329;41.594;23.810;2023-04-07T02:57:28;8.03;;;7.53;;
55465;SDS011;41329;41.594;23.810;2023-04-07T02:59:53;7.80;;;7.27;;
55465;SDS011;41329;41.594;23.810;2023-04-07T03:02:20;7.97;;;7.47;;
55465;SDS011;41329;41.594;23.810;2023-04-07T03:04:46;7.77;;;7.27;;
55465;SDS011;41329;41.594;23.810;2023-04-07T03:07:11;8.97;;;8.37;;
55465;SDS011;41329;41.594;23.810;2023-04-07T03:09:37;7.90;;;7.30;;
55465;SDS011;41329;41.594;23.810;2023-04-07T03:12:02;7.50;;;7.00;;
55465;SDS011;41329;41.594;23.810;2023-04-07T03:14:28;8.13;;;7.53;;
55465;SDS011;41329;41.594;23.810;2023-04-07T03:16:53;7.97;;;7.47;;
55465;SDS011;41329;41.594;23.810;2023-04-07T03:19:18;8.27;;;7.67;;
55465;SDS011;41329;41.594;23.810;2023-04-07T03:21:44;7.63;;;7.20;;
55465;SDS011;41329;41.594;23.810;2023-04-07T03:24:09;8.80;;;7.97;;
55465;SDS011;41329;41.594;23.810;2023-04-07T03:26:35;8.20;;;7.70;;
55465;SDS011;41329;41.594;23.810;2023-04-07T03:29:01;8.43;;;7.93;;
55465;SDS011;41329;41.594;23.810;2023-04-07T03:31:26;8.03;;;7.33;;
55465;SDS011;41329;41.594;23.810;2023-04-07T03:33:52;8.80;;;8.10;;
55465;SDS011;41329;41.594;23.810;2023-04-07T03:36:17;8.17;;;7.47;;
55465;SDS011;41329;41.594;23.810;2023-04-07T03:38:43;7.83;;;7.30;;
55465;SDS011;41329;41.594;23.810;2023-04-07T03:41:10;8.63;;;8.07;;
55465;SDS011;41329;41.594;23.810;2023-04-07T03:43:36;8.30;;;7.70;;
55465;SDS011;41329;41.594;23.810;2023-04-07T03:46:01;7.90;;;7.40;;
55465;SDS011;41329;41.594;23.810;2023-04-07T03:48:27;8.80;;;8.10;;
55465;SDS011;41329;41.594;23.810;2023-04-07T03:50:52;7.83;;;7.23;;
55465;SDS011;41329;41.594;23.810;2023-04-07T03:53:17;7.33;;;6.83;;
55465;SDS011;41329;41.594;23.810;2023-04-07T03:55:43;8.47;;;7.97;;
55465;SDS011;41329;41.594;23.810;2023-04-07T03:58:09;10.23;;;9.53;;
55465;SDS011;41329;41.594;23.810;2023-04-07T04:00:35;11.63;;;10.90;;
55465;SDS011;41329;41.594;23.810;2023-04-07T04:03:00;10.47;;;9.67;;
55465;SDS011;41329;41.594;23.810;2023-04-07T04:05:26;10.33;;;9.50;;
55465;SDS011;41329;41.594;23.810;2023-04-07T04:07:52;14.10;;;13.00;;
55465;SDS011;41329;41.594;23.810;2023-04-07T04:10:17;14.00;;;12.57;;
55465;SDS011;41329;41.594;23.810;2023-04-07T04:12:43;13.57;;;12.57;;
55465;SDS011;41329;41.594;23.810;2023-04-07T04:15:10;12.17;;;11.33;;
55465;SDS011;41329;41.594;23.810;2023-04-07T04:17:36;12.73;;;11.73;;
55465;SDS011;41329;41.594;23.810;2023-04-07T04:20:01;11.53;;;10.43;;
55465;SDS011;41329;41.594;23.810;2023-04-07T04:22:27;11.93;;;11.13;;
55465;SDS011;41329;41.594;23.810;2023-04-07T04:24:52;11.87;;;10.97;;
55465;SDS011;41329;41.594;23.810;2023-04-07T04:27:18;10.90;;;10.10;;
55465;SDS011;41329;41.594;23.810;2023-04-07T04:29:43;11.97;;;11.07;;
55465;SDS011;41329;41.594;23.810;2023-04-07T04:32:09;16.03;;;14.63;;
55465;SDS011;41329;41.594;23.810;2023-04-07T04:34:35;41.77;;;29.87;;
55465;SDS011;41329;41.594;23.810;2023-04-07T04:37:00;15.67;;;14.33;;
55465;SDS011;41329;41.594;23.810;2023-04-07T04:39:26;38.47;;;25.53;;
55465;SDS011;41329;41.594;23.810;2023-04-07T04:41:51;30.77;;;23.67;;
55465;SDS011;41329;41.594;23.810;2023-04-07T04:44:16;33.77;;;24.53;;
55465;SDS011;41329;41.594;23.810;2023-04-07T04:46:42;15.87;;;14.57;;
55465;SDS011;41329;41.594;23.810;2023-04-07T04:49:07;12.33;;;11.33;;
55465;SDS011;41329;41.594;23.810;2023-04-07T04:51:33;11.43;;;10.63;;
55465;SDS011;41329;41.594;23.810;2023-04-07T04:53:58;14.70;;;10.00;;
55465;SDS011;41329;41.594;23.810;2023-04-07T04:56:24;11.07;;;10.27;;
55465;SDS011;41329;41.594;23.810;2023-04-07T04:58:50;11.07;;;10.17;;
55465;SDS011;41329;41.594;23.810;2023-04-07T05:01:15;14.43;;;13.33;;
55465;SDS011;41329;41.594;23.810;2023-04-07T05:03:41;13.07;;;12.10;;
55465;SDS011;41329;41.594;23.810;2023-04-07T05:06:06;9.77;;;9.10;;
55465;SDS011;41329;41.594;23.810;2023-04-07T05:08:32;9.53;;;8.90;;
55465;SDS011;41329;41.594;23.810;2023-04-07T05:10:57;8.07;;;7.57;;
55465;SDS011;41329;41.594;23.810;2023-04-07T05:13:23;20.90;;;18.13;;
55465;SDS011;41329;41.594;23.810;2023-04-07T05:15:49;17.53;;;16.23;;
55465;SDS011;41329;41.594;23.810;2023-04-07T05:18:15;15.93;;;14.73;;
55465;SDS011;41329;41.594;23.810;2023-04-07T05:20:41;18.80;;;17.03;;
55465;SDS011;41329;41.594;23.810;2023-04-07T05:23:08;56.83;;;28.67;;
55465;SDS011;41329;41.594;23.810;2023-04-07T05:25:33;38.07;;;26.53;;
55465;SDS011;41329;41.594;23.810;2023-04-07T05:27:58;18.43;;;16.93;;
55465;SDS011;41329;41.594;23.810;2023-04-07T05:30:24;18.90;;;16.97;;
55465;SDS011;41329;41.594;23.810;2023-04-07T05:32:51;17.63;;;15.33;;
55465;SDS011;41329;41.594;23.810;2023-04-07T05:35:17;18.80;;;16.80;;
55465;SDS011;41329;41.594;23.810;2023-04-07T05:37:42;22.87;;;17.23;;
55465;SDS011;41329;41.594;23.810;2023-04-07T05:40:08;20.40;;;17.27;;
55465;SDS011;41329;41.594;23.810;2023-04-07T05:42:34;45.53;;;27.53;;
55465;SDS011;41329;41.594;23.810;2023-04-07T05:44:59;25.33;;;21.57;;
55465;SDS011;41329;41.594;23.810;2023-04-07T05:47:25;25.00;;;22.13;;
55465;SDS011;41329;41.594;23.810;2023-04-07T05:49:50;27.87;;;21.97;;
55465;SDS011;41329;41.594;23.810;2023-04-07T05:52:16;23.10;;;20.67;;
55465;SDS011;41329;41.594;23.810;2023-04-07T05:54:41;22.00;;;19.83;;
55465;SDS011;41329;41.594;23.810;2023-04-07T05:57:07;45.83;;;32.53;;
55465;SDS011;41329;41.594;23.810;2023-04-07T05:59:33;24.40;;;21.20;;
55465;SDS011;41329;41.594;23.810;2023-04-07T06:01:59;32.77;;;22.43;;
55465;SDS011;41329;41.594;23.810;2023-04-07T06:04:24;52.00;;;28.33;;
55465;SDS011;41329;41.594;23.810;2023-04-07T06:06:50;45.43;;;31.07;;
55465;SDS011;41329;41.594;23.810;2023-04-07T06:09:19;56.40;;;33.37;;
55465;SDS011;41329;41.594;23.810;2023-04-07T06:11:47;57.50;;;36.93;;
55465;SDS011;41329;41.594;23.810;2023-04-07T06:14:13;56.90;;;35.60;;
55465;SDS011;41329;41.594;23.810;2023-04-07T06:16:39;61.33;;;36.83;;
55465;SDS011;41329;41.594;23.810;2023-04-07T06:19:05;60.83;;;36.73;;
55465;SDS011;41329;41.594;23.810;2023-04-07T06:21:31;62.77;;;38.63;;
55465;SDS011;41329;41.594;23.810;2023-04-07T06:23:57;66.07;;;37.67;;
55465;SDS011;41329;41.594;23.810;2023-04-07T06:26:23;52.30;;;33.87;;
55465;SDS011;41329;41.594;23.810;2023-04-07T06:28:48;34.80;;;27.57;;
55465;SDS011;41329;41.594;23.810;2023-04-07T06:31:14;38.87;;;27.57;;
55465;SDS011;41329;41.594;23.810;2023-04-07T06:33:40;65.03;;;37.17;;
55465;SDS011;41329;41.594;23.810;2023-04-07T06:36:06;66.07;;;36.77;;
55465;SDS011;41329;41.594;23.810;2023-04-07T06:38:31;52.60;;;32.47;;
55465;SDS011;41329;41.594;23.810;2023-04-07T06:40:57;50.97;;;30.13;;
55465;SDS011;41329;41.594;23.810;2023-04-07T06:43:22;29.03;;;23.17;;
55465;SDS011;41329;41.594;23.810;2023-04-07T06:45:48;25.43;;;22.67;;
55465;SDS011;41329;41.594;23.810;2023-04-07T06:48:13;61.03;;;33.63;;
55465;SDS011;41329;41.594;23.810;2023-04-07T06:50:40;51.97;;;33.00;;
55465;SDS011;41329;41.594;23.810;2023-04-07T06:53:05;36.87;;;26.13;;
55465;SDS011;41329;41.594;23.810;2023-04-07T06:55:31;24.90;;;18.27;;
55465;SDS011;41329;41.594;23.810;2023-04-07T06:57:56;35.67;;;24.67;;
55465;SDS011;41329;41.594;23.810;2023-04-07T07:00:21;33.63;;;27.10;;
55465;SDS011;41329;41.594;23.810;2023-04-07T07:02:48;23.97;;;21.67;;
55465;SDS011;41329;41.594;23.810;2023-04-07T07:05:14;36.93;;;26.33;;
55465;SDS011;41329;41.594;23.810;2023-04-07T07:07:39;32.07;;;24.57;;
55465;SDS011;41329;41.594;23.810;2023-04-07T07:10:05;37.53;;;26.40;;
55465;SDS011;41329;41.594;23.810;2023-04-07T07:12:33;47.23;;;29.17;;
55465;SDS011;41329;41.594;23.810;2023-04-07T07:14:58;60.80;;;33.13;;
55465;SDS011;41329;41.594;23.810;2023-04-07T07:17:24;45.47;;;28.13;;
55465;SDS011;41329;41.594;23.810;2023-04-07T07:19:49;48.60;;;28.13;;
55465;SDS011;41329;41.594;23.810;2023-04-07T07:22:15;27.60;;;21.57;;
55465;SDS011;41329;41.594;23.810;2023-04-07T07:24:40;23.20;;;18.13;;
55465;SDS011;41329;41.594;23.810;2023-04-07T07:27:05;20.03;;;15.53;;
55465;SDS011;41329;41.594;23.810;2023-04-07T07:29:31;15.77;;;14.37;;
55465;SDS011;41329;41.594;23.810;2023-04-07T07:31:56;18.70;;;12.93;;
55465;SDS011;41329;41.594;23.810;2023-04-07T07:34:22;14.10;;;12.47;;
55465;SDS011;41329;41.594;23.810;2023-04-07T07:36:47;13.17;;;11.83;;
55465;SDS011;41329;41.594;23.810;2023-04-07T07:39:12;25.30;;;11.00;;
55465;SDS011;41329;41.594;23.810;2023-04-07T07:41:38;10.30;;;9.50;;
55465;SDS011;41329;41.594;23.810;2023-04-07T07:44:04;8.03;;;7.53;;
55465;SDS011;41329;41.594;23.810;2023-04-07T07:46:30;9.13;;;7.87;;
55465;SDS011;41329;41.594;23.810;2023-04-07T07:48:55;8.80;;;7.97;;
55465;SDS011;41329;41.594;23.810;2023-04-07T07:51:21;7.97;;;7.17;;
55465;SDS011;41329;41.594;23.810;2023-04-07T07:53:46;7.43;;;6.73;;
55465;SDS011;41329;41.594;23.810;2023-04-07T07:56:12;9.30;;;7.00;;
55465;SDS011;41329;41.594;23.810;2023-04-07T07:58:37;6.50;;;6.10;;
55465;SDS011;41329;41.594;23.810;2023-04-07T08:01:03;9.67;;;8.77;;
55465;SDS011;41329;41.594;23.810;2023-04-07T08:03:28;9.27;;;8.27;;
55465;SDS011;41329;41.594;23.810;2023-04-07T08:05:54;10.17;;;9.30;;
55465;SDS011;41329;41.594;23.810;2023-04-07T08:08:19;6.70;;;6.20;;
55465;SDS011;41329;41.594;23.810;2023-04-07T08:10:45;7.77;;;7.07;;
55465;SDS011;41329;41.594;23.810;2023-04-07T08:13:10;6.07;;;5.67;;
55465;SDS011;41329;41.594;23.810;2023-04-07T08:15:36;16.50;;;12.77;;
55465;SDS011;41329;41.594;23.810;2023-04-07T08:18:01;15.70;;;9.90;;
55465;SDS011;41329;41.594;23.810;2023-04-07T08:20:29;7.30;;;6.60;;
55465;SDS011;41329;41.594;23.810;2023-04-07T08:22:55;7.40;;;6.80;;
55465;SDS011;41329;41.594;23.810;2023-04-07T08:25:21;8.20;;;7.60;;
55465;SDS011;41329;41.594;23.810;2023-04-07T08:27:46;6.23;;;5.73;;
55465;SDS011;41329;41.594;23.810;2023-04-07T08:30:12;5.70;;;5.20;;
55465;SDS011;41329;41.594;23.810;2023-04-07T08:32:39;5.27;;;4.80;;
55465;SDS011;41329;41.594;23.810;2023-04-07T08:35:06;8.13;;;7.53;;
55465;SDS011;41329;41.594;23.810;2023-04-07T08:37:32;5.13;;;4.80;;
55465;SDS011;41329;41.594;23.810;2023-04-07T08:39:59;4.63;;;4.33;;
55465;SDS011;41329;41.594;23.810;2023-04-07T08:42:29;5.83;;;5.43;;
55465;SDS011;41329;41.594;23.810;2023-04-07T08:44:56;6.97;;;6.47;;
55465;SDS011;41329;41.594;23.810;2023-04-07T08:47:26;6.00;;;5.50;;
55465;SDS011;41329;41.594;23.810;2023-04-07T08:49:56;6.57;;;5.40;;
55465;SDS011;41329;41.594;23.810;2023-04-07T08:52:26;5.53;;;5.13;;
55465;SDS011;41329;41.594;23.810;2023-04-07T08:54:59;6.97;;;6.37;;
55465;SDS011;41329;41.594;23.810;2023-04-07T08:57:27;8.63;;;8.00;;
55465;SDS011;41329;41.594;23.810;2023-04-07T08:59:55;6.87;;;5.77;;
55465;SDS011;41329;41.594;23.810;2023-04-07T09:02:22;9.50;;;8.73;;
55465;SDS011;41329;41.594;23.810;2023-04-07T09:04:48;7.03;;;6.53;;
55465;SDS011;41329;41.594;23.810;2023-04-07T09:07:13;6.63;;;6.13;;
55465;SDS011;41329;41.594;23.810;2023-04-07T09:09:39;6.57;;;6.17;;
55465;SDS011;41329;41.594;23.810;2023-04-07T09:12:05;5.13;;;4.83;;
55465;SDS011;41329;41.594;23.810;2023-04-07T09:14:30;7.77;;;6.93;;
55465;SDS011;41329;41.594;23.810;2023-04-07T09:16:55;7.67;;;7.27;;
55465;SDS011;41329;41.594;23.810;2023-04-07T09:19:23;5.27;;;4.87;;
55465;SDS011;41329;41.594;23.810;2023-04-07T09:21:51;5.20;;;4.70;;
55465;SDS011;41329;41.594;23.810;2023-04-07T09:24:21;5.63;;;5.23;;
55465;SDS011;41329;41.594;23.810;2023-04-07T09:26:48;5.70;;;5.20;;
55465;SDS011;41329;41.594;23.810;2023-04-07T09:29:17;5.17;;;4.87;;
55465;SDS011;41329;41.594;23.810;2023-04-07T09:34:24;4.83;;;4.53;;
55465;SDS011;41329;41.594;23.810;2023-04-07T09:36:51;13.60;;;12.50;;
55465;SDS011;41329;41.594;23.810;2023-04-07T09:39:17;7.30;;;6.60;;
55465;SDS011;41329;41.594;23.810;2023-04-07T09:41:43;5.40;;;5.00;;
55465;SDS011;41329;41.594;23.810;2023-04-07T09:44:09;6.30;;;5.70;;
55465;SDS011;41329;41.594;23.810;2023-04-07T09:46:35;5.77;;;5.27;;
55465;SDS011;41329;41.594;23.810;2023-04-07T09:49:12;6.23;;;5.83;;
55465;SDS011;41329;41.594;23.810;2023-04-07T09:51:37;5.20;;;4.80;;
55465;SDS011;41329;41.594;23.810;2023-04-07T09:54:04;5.67;;;5.27;;
55465;SDS011;41329;41.594;23.810;2023-04-07T09:56:31;5.30;;;5.00;;
55465;SDS011;41329;41.594;23.810;2023-04-07T09:58:56;4.90;;;4.60;;
55465;SDS011;41329;41.594;23.810;2023-04-07T10:01:23;7.60;;;5.80;;
55465;SDS011;41329;41.594;23.810;2023-04-07T10:03:48;4.17;;;3.87;;
55465;SDS011;41329;41.594;23.810;2023-04-07T10:06:15;5.17;;;4.67;;
55465;SDS011;41329;41.594;23.810;2023-04-07T10:08:41;5.80;;;5.40;;
55465;SDS011;41329;41.594;23.810;2023-04-07T10:11:07;4.63;;;4.23;;
55465;SDS011;41329;41.594;23.810;2023-04-07T10:13:34;4.80;;;4.50;;
55465;SDS011;41329;41.594;23.810;2023-04-07T10:16:04;4.73;;;4.43;;
55465;SDS011;41329;41.594;23.810;2023-04-07T10:18:34;4.72;;;4.43;;
55465;SDS011;41329;41.594;23.810;2023-04-07T10:21:01;4.32;;;4.03;;
55465;SDS011;41329;41.594;23.810;2023-04-07T10:25:57;5.67;;;5.27;;
55465;SDS011;41329;41.594;23.810;2023-04-07T10:28:25;4.30;;;4.00;;
55465;SDS011;41329;41.594;23.810;2023-04-07T10:30:52;3.40;;;3.20;;
55465;SDS011;41329;41.594;23.810;2023-04-07T10:34:04;4.10;;;3.77;;
55465;SDS011;41329;41.594;23.810;2023-04-07T10:36:15;4.47;;;4.17;;
55465;SDS011;41329;41.594;23.810;2023-04-07T10:41:32;3.90;;;3.60;;
55465;SDS011;41329;41.594;23.810;2023-04-07T10:44:04;4.00;;;3.70;;
55465;SDS011;41329;41.594;23.810;2023-04-07T10:49:16;3.80;;;3.50;;
55465;SDS011;41329;41.594;23.810;2023-04-07T10:51:42;3.93;;;3.70;;
55465;SDS011;41329;41.594;23.810;2023-04-07T10:54:14;3.60;;;3.30;;
55465;SDS011;41329;41.594;23.810;2023-04-07T10:59:28;3.77;;;3.50;;
55465;SDS011;41329;41.594;23.810;2023-04-07T11:04:39;3.37;;;3.07;;
55465;SDS011;41329;41.594;23.810;2023-04-07T11:07:06;3.90;;;3.60;;
55465;SDS011;41329;41.594;23.810;2023-04-07T11:09:32;3.20;;;3.00;;
55465;SDS011;41329;41.594;23.810;2023-04-07T11:11:57;3.93;;;3.73;;
55465;SDS011;41329;41.594;23.810;2023-04-07T11:16:52;3.70;;;3.50;;
55465;SDS011;41329;41.594;23.810;2023-04-07T11:19:17;3.63;;;3.43;;
55465;SDS011;41329;41.594;23.810;2023-04-07T11:21:43;3.50;;;3.30;;
55465;SDS011;41329;41.594;23.810;2023-04-07T11:24:09;3.87;;;3.53;;
55465;SDS011;41329;41.594;23.810;2023-04-07T11:26:40;3.80;;;3.50;;
55465;SDS011;41329;41.594;23.810;2023-04-07T11:29:06;5.67;;;5.27;;
55465;SDS011;41329;41.594;23.810;2023-04-07T11:31:32;3.27;;;2.97;;
55465;SDS011;41329;41.594;23.810;2023-04-07T11:33:59;3.27;;;3.07;;
55465;SDS011;41329;41.594;23.810;2023-04-07T11:36:32;4.07;;;3.35;;
55465;SDS011;41329;41.594;23.810;2023-04-07T11:39:00;4.10;;;3.80;;
55465;SDS011;41329;41.594;23.810;2023-04-07T11:41:28;4.10;;;3.80;;
55465;SDS011;41329;41.594;23.810;2023-04-07T11:44:04;3.85;;;3.58;;
55465;SDS011;41329;41.594;23.810;2023-04-07T11:46:35;3.75;;;3.55;;
55465;SDS011;41329;41.594;23.810;2023-04-07T11:49:08;2.58;;;2.40;;
55465;SDS011;41329;41.594;23.810;2023-04-07T11:51:35;2.78;;;2.53;;
55465;SDS011;41329;41.594;23.810;2023-04-07T11:54:00;2.83;;;2.63;;
55465;SDS011;41329;41.594;23.810;2023-04-07T11:56:26;2.90;;;2.70;;
55465;SDS011;41329;41.594;23.810;2023-04-07T11:58:52;3.67;;;2.00;;
55465;SDS011;41329;41.594;23.810;2023-04-07T12:01:19;2.45;;;1.90;;
55465;SDS011;41329;41.594;23.810;2023-04-07T12:06:40;3.70;;;3.50;;
55465;SDS011;41329;41.594;23.810;2023-04-07T12:09:28;3.47;;;3.17;;
55465;SDS011;41329;41.594;23.810;2023-04-07T12:11:56;2.75;;;2.55;;
55465;SDS011;41329;41.594;23.810;2023-04-07T12:14:23;3.33;;;3.03;;
55465;SDS011;41329;41.594;23.810;2023-04-07T12:16:49;2.33;;;2.20;;
55465;SDS011;41329;41.594;23.810;2023-04-07T12:19:15;1.95;;;1.60;;
55465;SDS011;41329;41.594;23.810;2023-04-07T12:21:40;3.33;;;2.47;;
55465;SDS011;41329;41.594;23.810;2023-04-07T12:24:06;3.63;;;3.33;;
55465;SDS011;41329;41.594;23.810;2023-04-07T12:26:32;3.28;;;3.08;;
55465;SDS011;41329;41.594;23.810;2023-04-07T12:28:57;3.97;;;3.10;;
55465;SDS011;41329;41.594;23.810;2023-04-07T12:31:29;7.72;;;4.35;;
55465;SDS011;41329;41.594;23.810;2023-04-07T12:33:56;4.30;;;4.00;;
55465;SDS011;41329;41.594;23.810;2023-04-07T12:36:22;2.40;;;2.30;;
55465;SDS011;41329;41.594;23.810;2023-04-07T12:38:48;5.00;;;3.25;;
55465;SDS011;41329;41.594;23.810;2023-04-07T12:41:13;2.75;;;2.55;;
55465;SDS011;41329;41.594;23.810;2023-04-07T12:43:39;3.75;;;2.72;;
55465;SDS011;41329;41.594;23.810;2023-04-07T12:46:05;2.70;;;1.77;;
55465;SDS011;41329;41.594;23.810;2023-04-07T12:48:30;1.45;;;1.35;;
55465;SDS011;41329;41.594;23.810;2023-04-07T12:50:56;2.13;;;1.15;;
55465;SDS011;41329;41.594;23.810;2023-04-07T12:53:22;1.33;;;1.17;;
55465;SDS011;41329;41.594;23.810;2023-04-07T12:55:47;2.50;;;1.13;;
55465;SDS011;41329;41.594;23.810;2023-04-07T12:58:13;3.47;;;1.98;;
55465;SDS011;41329;41.594;23.810;2023-04-07T13:00:38;2.28;;;1.45;;
55465;SDS011;41329;41.594;23.810;2023-04-07T13:03:05;2.78;;;1.42;;
55465;SDS011;41329;41.594;23.810;2023-04-07T13:05:31;2.33;;;1.10;;
55465;SDS011;41329;41.594;23.810;2023-04-07T13:07:56;11.05;;;1.30;;
55465;SDS011;41329;41.594;23.810;2023-04-07T13:10:22;1.95;;;1.52;;
55465;SDS011;41329;41.594;23.810;2023-04-07T13:12:47;3.40;;;1.33;;
55465;SDS011;41329;41.594;23.810;2023-04-07T13:15:13;2.65;;;1.10;;
55465;SDS011;41329;41.594;23.810;2023-04-07T13:17:38;3.38;;;2.70;;
55465;SDS011;41329;41.594;23.810;2023-04-07T13:20:04;2.40;;;1.65;;
55465;SDS011;41329;41.594;23.810;2023-04-07T13:22:30;2.23;;;1.20;;
55465;SDS011;41329;41.594;23.810;2023-04-07T13:24:56;1.20;;;1.10;;
55465;SDS011;41329;41.594;23.810;2023-04-07T13:27:22;1.38;;;1.20;;
55465;SDS011;41329;41.594;23.810;2023-04-07T13:29:47;1.85;;;1.40;;
55465;SDS011;41329;41.594;23.810;2023-04-07T13:32:13;1.70;;;1.17;;
55465;SDS011;41329;41.594;23.810;2023-04-07T13:34:39;1.00;;;0.90;;
55465;SDS011;41329;41.594;23.810;2023-04-07T13:37:05;1.20;;;1.10;;
55465;SDS011;41329;41.594;23.810;2023-04-07T13:39:31;1.02;;;0.93;;
55465;SDS011;41329;41.594;23.810;2023-04-07T13:41:57;1.13;;;1.03;;
55465;SDS011;41329;41.594;23.810;2023-04-07T13:44:24;1.43;;;1.10;;
55465;SDS011;41329;41.594;23.810;2023-04-07T13:46:53;1.20;;;1.10;;
55465;SDS011;41329;41.594;23.810;2023-04-07T13:49:21;1.45;;;1.35;;
55465;SDS011;41329;41.594;23.810;2023-04-07T13:51:47;1.42;;;0.95;;
55465;SDS011;41329;41.594;23.810;2023-04-07T13:54:12;1.00;;;0.98;;
55465;SDS011;41329;41.594;23.810;2023-04-07T13:56:38;2.37;;;1.33;;
55465;SDS011;41329;41.594;23.810;2023-04-07T13:59:04;1.63;;;1.30;;
55465;SDS011;41329;41.594;23.810;2023-04-07T14:01:31;1.58;;;1.48;;
55465;SDS011;41329;41.594;23.810;2023-04-07T14:03:58;4.55;;;1.23;;
55465;SDS011;41329;41.594;23.810;2023-04-07T14:06:23;1.80;;;1.70;;
55465;SDS011;41329;41.594;23.810;2023-04-07T14:08:50;1.70;;;1.60;;
55465;SDS011;41329;41.594;23.810;2023-04-07T14:11:19;1.70;;;1.60;;
55465;SDS011;41329;41.594;23.810;2023-04-07T14:13:46;3.08;;;2.08;;
55465;SDS011;41329;41.594;23.810;2023-04-07T14:16:12;2.03;;;1.77;;
55465;SDS011;41329;41.594;23.810;2023-04-07T14:18:38;1.10;;;1.00;;
55465;SDS011;41329;41.594;23.810;2023-04-07T14:21:03;1.23;;;1.10;;
55465;SDS011;41329;41.594;23.810;2023-04-07T14:23:30;1.70;;;1.60;;
55465;SDS011;41329;41.594;23.810;2023-04-07T14:25:58;2.35;;;2.10;;
55465;SDS011;41329;41.594;23.810;2023-04-07T14:28:25;2.78;;;2.50;;
55465;SDS011;41329;41.594;23.810;2023-04-07T14:30:51;2.35;;;2.13;;
55465;SDS011;41329;41.594;23.810;2023-04-07T14:33:18;2.35;;;2.22;;
55465;SDS011;41329;41.594;23.810;2023-04-07T14:35:44;2.83;;;2.50;;
55465;SDS011;41329;41.594;23.810;2023-04-07T14:38:10;2.40;;;2.30;;
55465;SDS011;41329;41.594;23.810;2023-04-07T14:40:35;2.40;;;2.22;;
55465;SDS011;41329;41.594;23.810;2023-04-07T14:43:01;3.15;;;2.40;;
55465;SDS011;41329;41.594;23.810;2023-04-07T14:45:28;2.60;;;2.25;;
55465;SDS011;41329;41.594;23.810;2023-04-07T14:47:53;2.30;;;2.20;;
55465;SDS011;41329;41.594;23.810;2023-04-07T14:50:19;2.70;;;2.28;;
55465;SDS011;41329;41.594;23.810;2023-04-07T14:52:45;2.40;;;2.20;;
55465;SDS011;41329;41.594;23.810;2023-04-07T14:55:10;2.70;;;2.50;;
55465;SDS011;41329;41.594;23.810;2023-04-07T14:57:36;3.33;;;2.40;;
55465;SDS011;41329;41.594;23.810;2023-04-07T15:00:02;2.88;;;2.67;;